Time;durP1;ratioP1;P1;durP2;ratioP2;P2;SDS_P1;SDS_P2;PMS_P1;PMS_P2;Temp;Humidity;BMP_temperature;BMP_pressure;BME280_temperature;BME280_humidity;BME280_pressure;Samples;Min_cycle;Max_cycle;Signal;HPM_P1;HPM_P2
2023/12/18 00:02:01;;;;;;;5.83;3.03;;;13.90;99.90;;;;;;10421210;28;20223;-83
2023/12/18 00:07:04;;;;;;;5.00;4.00;;;13.80;99.90;;;;;;10421631;28;20196;-83
2023/12/18 00:12:07;;;;;;;3.07;2.57;;;13.70;99.90;;;;;;10422894;28;20206;-83
2023/12/18 00:17:09;;;;;;;3.93;2.70;;;13.70;99.90;;;;;;10420830;28;20700;-83
2023/12/18 00:22:12;;;;;;;6.90;3.83;;;13.60;99.90;;;;;;10421193;28;20242;-82
2023/12/18 00:27:14;;;;;;;3.63;2.77;;;13.70;99.90;;;;;;10422531;28;20249;-83
2023/12/18 00:32:17;;;;;;;2.70;2.03;;;13.90;99.90;;;;;;10386397;28;20205;-82
2023/12/18 00:37:19;;;;;;;4.07;3.40;;;14.20;99.90;;;;;;10365930;28;20201;-83
2023/12/18 00:42:22;;;;;;;5.77;4.13;;;13.90;99.90;;;;;;10380984;28;20224;-83
2023/12/18 00:47:24;;;;;;;4.43;3.37;;;13.60;99.90;;;;;;10379349;28;20228;-83
2023/12/18 00:52:27;;;;;;;4.93;2.87;;;14.10;99.90;;;;;;10339648;28;20204;-83
2023/12/18 00:57:29;;;;;;;9.97;3.03;;;14.20;99.90;;;;;;10381396;28;20208;-82
2023/12/18 01:02:32;;;;;;;9.03;3.53;;;14.00;99.90;;;;;;10342354;28;20255;-83
2023/12/18 01:07:34;;;;;;;5.73;3.90;;;13.80;99.90;;;;;;10387891;28;20657;-83
2023/12/18 01:12:37;;;;;;;3.97;1.87;;;13.70;99.90;;;;;;10420530;28;20203;-83
2023/12/18 01:17:39;;;;;;;4.33;2.83;;;14.10;99.90;;;;;;10390248;28;20204;-83
2023/12/18 01:22:42;;;;;;;6.10;3.43;;;13.80;99.90;;;;;;10375639;28;20232;-83
2023/12/18 01:27:46;;;;;;;4.63;3.50;;;14.00;99.90;;;;;;10371948;28;20192;-83
2023/12/18 01:32:49;;;;;;;3.73;3.30;;;14.20;99.90;;;;;;10363055;28;20208;-83
2023/12/18 01:37:52;;;;;;;4.50;3.17;;;14.00;99.90;;;;;;10362461;28;20243;-83
2023/12/18 01:42:54;;;;;;;2.50;2.27;;;13.90;99.90;;;;;;10377477;28;20220;-83
2023/12/18 01:47:57;;;;;;;5.53;3.37;;;14.10;99.90;;;;;;10377356;28;20279;-83
2023/12/18 01:52:59;;;;;;;4.27;3.13;;;14.10;99.90;;;;;;10364438;28;20614;-83
2023/12/18 01:58:02;;;;;;;2.83;1.97;;;14.10;99.90;;;;;;10337138;28;20227;-83
2023/12/18 02:03:05;;;;;;;4.70;3.57;;;14.10;99.90;;;;;;10338433;28;20275;-83
2023/12/18 02:08:07;;;;;;;4.20;3.33;;;13.70;99.90;;;;;;10345447;28;20200;-83
2023/12/18 02:13:10;;;;;;;2.57;1.97;;;13.60;99.90;;;;;;10417701;28;20262;-84
2023/12/18 02:18:13;;;;;;;4.33;3.13;;;13.50;99.90;;;;;;10387245;28;20204;-83
2023/12/18 02:23:16;;;;;;;2.93;2.33;;;13.50;99.90;;;;;;10389016;28;20229;-83
2023/12/18 02:28:18;;;;;;;4.50;3.53;;;13.40;99.90;;;;;;10365256;28;20200;-83
2023/12/18 02:33:20;;;;;;;6.53;4.87;;;13.30;99.90;;;;;;10359588;28;20212;-84
2023/12/18 02:38:23;;;;;;;1.57;1.47;;;13.00;99.90;;;;;;10346544;28;20197;-83
2023/12/18 02:43:26;;;;;;;2.33;2.13;;;12.70;99.90;;;;;;10351726;28;20244;-84
2023/12/18 02:48:28;;;;;;;4.53;3.43;;;13.20;99.90;;;;;;10358949;28;20233;-84
2023/12/18 02:53:31;;;;;;;2.17;1.90;;;13.00;99.90;;;;;;10335379;28;20263;-84
2023/12/18 02:58:34;;;;;;;4.53;3.70;;;13.00;99.90;;;;;;10349455;28;20197;-84
2023/12/18 03:03:36;;;;;;;3.50;2.10;;;13.30;99.90;;;;;;10344458;28;20243;-84
2023/12/18 03:08:39;;;;;;;3.23;2.23;;;13.40;99.90;;;;;;10375354;28;20607;-84
2023/12/18 03:13:41;;;;;;;6.53;4.57;;;13.20;99.90;;;;;;10398710;28;20246;-84
2023/12/18 03:18:44;;;;;;;3.90;3.43;;;13.20;99.90;;;;;;10414621;28;20848;-84
2023/12/18 03:23:46;;;;;;;5.13;1.70;;;13.20;99.90;;;;;;10381068;28;20252;-84
2023/12/18 03:28:49;;;;;;;7.50;4.13;;;13.30;99.90;;;;;;10366912;28;20235;-84
2023/12/18 03:33:52;;;;;;;4.83;3.90;;;13.20;99.90;;;;;;10366358;28;20229;-84
2023/12/18 03:38:54;;;;;;;3.43;1.80;;;13.10;99.90;;;;;;10366828;28;20279;-84
2023/12/18 03:43:57;;;;;;;5.80;4.30;;;13.40;99.90;;;;;;10345029;28;20319;-84
2023/12/18 03:48:59;;;;;;;4.13;2.60;;;13.30;99.90;;;;;;10359228;28;20257;-84
2023/12/18 03:54:02;;;;;;;2.47;1.67;;;12.90;99.90;;;;;;10332958;28;20291;-84
2023/12/18 03:59:05;;;;;;;2.63;1.83;;;13.40;99.90;;;;;;10364138;28;20211;-84
2023/12/18 04:04:07;;;;;;;7.37;4.47;;;13.50;99.90;;;;;;10366382;28;20294;-84
2023/12/18 04:09:10;;;;;;;3.03;1.37;;;13.00;99.90;;;;;;10359613;28;20231;-83
2023/12/18 04:14:13;;;;;;;7.27;4.53;;;13.00;99.90;;;;;;10367898;28;20235;-83
2023/12/18 04:19:15;;;;;;;10.53;5.90;;;13.20;99.90;;;;;;10358135;28;20914;-83
2023/12/18 04:24:18;;;;;;;2.60;1.57;;;13.10;99.90;;;;;;10390922;28;20247;-83
2023/12/18 04:29:22;;;;;;;3.53;1.50;;;12.60;99.90;;;;;;10354125;28;20228;-83
2023/12/18 04:34:24;;;;;;;5.37;2.93;;;12.70;99.90;;;;;;10367173;28;20245;-83
2023/12/18 04:39:27;;;;;;;8.67;6.40;;;12.80;99.90;;;;;;10336180;28;20228;-83
2023/12/18 04:44:30;;;;;;;2.20;2.00;;;12.70;99.90;;;;;;10360307;28;20336;-83
2023/12/18 04:49:32;;;;;;;7.07;4.20;;;12.90;99.90;;;;;;10361931;28;20287;-83
2023/12/18 04:54:35;;;;;;;8.87;5.30;;;12.80;99.90;;;;;;10363253;28;20236;-83
2023/12/18 04:59:37;;;;;;;3.43;2.67;;;12.80;99.90;;;;;;10351267;28;20232;-83
2023/12/18 05:04:40;;;;;;;4.03;3.17;;;12.70;99.90;;;;;;10370835;28;20659;-83
2023/12/18 05:09:43;;;;;;;9.43;4.13;;;12.70;99.90;;;;;;10371810;28;20224;-83
2023/12/18 05:14:48;;;;;;;6.13;4.17;;;12.30;99.90;;;;;;10374894;28;20290;-84
2023/12/18 05:19:50;;;;;;;5.27;2.87;;;12.30;99.90;;;;;;10373510;28;20256;-84
2023/12/18 05:24:53;;;;;;;3.37;2.50;;;13.00;99.90;;;;;;10374640;28;20248;-84
2023/12/18 05:29:55;;;;;;;2.77;2.03;;;13.20;99.90;;;;;;10376186;28;20256;-84
2023/12/18 05:34:58;;;;;;;2.83;2.17;;;13.20;99.90;;;;;;10369052;28;20289;-84
2023/12/18 05:40:01;;;;;;;3.80;2.27;;;13.20;99.90;;;;;;10368471;28;20240;-84
2023/12/18 05:45:04;;;;;;;4.87;2.53;;;13.10;99.90;;;;;;10398995;28;20282;-84
2023/12/18 05:50:07;;;;;;;4.03;2.67;;;13.60;99.90;;;;;;10335962;28;20256;-84
2023/12/18 05:55:10;;;;;;;4.90;3.40;;;13.50;99.90;;;;;;10362296;28;20244;-84
2023/12/18 06:00:13;;;;;;;2.97;2.03;;;13.40;99.90;;;;;;10367850;28;20310;-84
2023/12/18 06:05:16;;;;;;;2.83;1.47;;;13.30;99.90;;;;;;10358597;28;20260;-83
2023/12/18 06:10:18;;;;;;;3.00;2.57;;;13.40;99.90;;;;;;10370873;28;20236;-84
2023/12/18 06:15:21;;;;;;;3.00;2.27;;;13.50;99.90;;;;;;10410337;28;20858;-83
2023/12/18 06:20:23;;;;;;;3.40;2.63;;;13.90;99.90;;;;;;10381220;28;20240;-83
2023/12/18 06:25:25;;;;;;;5.87;3.03;;;14.00;99.90;;;;;;10411497;28;20385;-82
2023/12/18 06:30:28;;;;;;;2.57;1.70;;;14.10;99.90;;;;;;10411179;28;20257;-82
2023/12/18 06:35:31;;;;;;;3.40;2.63;;;13.70;99.90;;;;;;10358416;28;20250;-82
2023/12/18 06:40:33;;;;;;;4.13;2.87;;;13.60;99.90;;;;;;10370473;28;20238;-83
2023/12/18 06:45:35;;;;;;;2.30;1.77;;;13.70;99.90;;;;;;10371482;28;20294;-82
2023/12/18 06:50:38;;;;;;;9.50;4.17;;;13.70;99.90;;;;;;10395356;28;20252;-82
2023/12/18 06:55:41;;;;;;;6.87;4.27;;;13.70;99.90;;;;;;10371977;28;20266;-82
2023/12/18 07:00:43;;;;;;;7.00;4.70;;;13.70;99.90;;;;;;10410203;28;20636;-82
2023/12/18 07:05:46;;;;;;;7.67;4.07;;;13.50;99.90;;;;;;10409757;28;20278;-82
2023/12/18 07:10:49;;;;;;;3.03;2.30;;;13.40;99.90;;;;;;10408712;28;20261;-82
2023/12/18 07:15:51;;;;;;;5.60;3.00;;;13.40;99.90;;;;;;10410006;28;20239;-82
2023/12/18 07:20:54;;;;;;;3.13;2.50;;;13.60;99.90;;;;;;10409646;28;20293;-82
2023/12/18 07:25:56;;;;;;;4.67;3.83;;;13.60;99.90;;;;;;10409497;28;20255;-82
2023/12/18 07:30:59;;;;;;;4.47;3.17;;;13.70;99.90;;;;;;10408907;28;20285;-82
2023/12/18 07:36:05;;;;;;;3.40;2.50;;;13.50;99.90;;;;;;10409172;28;20247;-82
2023/12/18 07:41:07;;;;;;;3.07;2.63;;;13.60;99.90;;;;;;10407164;28;20242;-82
2023/12/18 07:46:19;;;;;;;6.90;5.33;;;13.60;99.90;;;;;;10408273;28;20651;-83
2023/12/18 07:51:22;;;;;;;6.37;3.77;;;13.50;99.90;;;;;;10407761;28;20235;-82
2023/12/18 07:56:24;;;;;;;3.47;2.57;;;13.70;99.90;;;;;;10407963;28;20223;-82
2023/12/18 08:01:27;;;;;;;5.53;3.97;;;13.90;99.90;;;;;;10406369;28;20263;-82
2023/12/18 08:06:29;;;;;;;5.93;3.40;;;14.10;99.90;;;;;;10402111;28;20278;-82
2023/12/18 08:11:32;;;;;;;1.40;1.30;;;14.20;99.90;;;;;;10402969;28;20681;-82
2023/12/18 08:16:35;;;;;;;5.37;2.47;;;14.30;99.90;;;;;;10402546;28;20235;-82
2023/12/18 08:21:37;;;;;;;5.17;1.90;;;14.30;99.90;;;;;;10396747;28;20621;-81
2023/12/18 08:26:40;;;;;;;9.07;4.80;;;14.20;99.90;;;;;;10406698;28;20230;-82
2023/12/18 08:31:42;;;;;;;5.07;3.60;;;14.20;99.90;;;;;;10407510;28;20236;-82
2023/12/18 08:36:45;;;;;;;15.47;9.80;;;13.80;99.90;;;;;;10379782;28;20278;-82
2023/12/18 08:41:48;;;;;;;13.40;5.57;;;11.70;99.90;;;;;;10411088;28;20285;-82
2023/12/18 08:46:50;;;;;;;11.00;5.10;;;11.40;99.90;;;;;;10415693;28;20326;-82
2023/12/18 08:51:53;;;;;;;8.80;5.27;;;12.60;99.90;;;;;;10415105;28;20711;-82
2023/12/18 08:56:55;;;;;;;4.70;3.63;;;12.90;99.90;;;;;;10416303;28;20235;-81
2023/12/18 09:01:58;;;;;;;4.73;3.10;;;13.00;99.90;;;;;;10415563;28;20231;-81
2023/12/18 09:07:00;;;;;;;8.47;3.10;;;13.30;99.90;;;;;;10414473;28;20203;-82
2023/12/18 09:12:03;;;;;;;5.30;3.50;;;13.80;99.90;;;;;;10414258;28;20285;-81
2023/12/18 09:17:05;;;;;;;4.47;2.80;;;13.90;99.90;;;;;;10415316;28;20281;-82
2023/12/18 09:22:08;;;;;;;7.70;3.43;;;13.60;99.90;;;;;;10414746;28;20262;-82
2023/12/18 09:27:10;;;;;;;5.83;3.80;;;13.80;99.90;;;;;;10413847;28;20285;-81
2023/12/18 09:32:13;;;;;;;6.53;4.47;;;14.00;99.90;;;;;;10413495;28;20635;-81
2023/12/18 09:37:16;;;;;;;8.47;3.50;;;14.30;99.90;;;;;;10414286;28;20263;-82
2023/12/18 09:42:18;;;;;;;8.67;3.50;;;13.90;99.90;;;;;;10398032;28;20244;-81
2023/12/18 09:47:23;;;;;;;13.37;6.37;;;13.60;99.90;;;;;;10375218;28;20223;-84
2023/12/18 09:52:31;;;;;;;4.37;2.67;;;13.80;99.90;;;;;;10412830;28;20231;-84
2023/12/18 09:57:33;;;;;;;5.70;3.47;;;13.90;99.90;;;;;;10413602;28;20266;-83
2023/12/18 10:02:37;;;;;;;6.67;4.70;;;13.50;99.90;;;;;;10411623;28;20770;-84
2023/12/18 10:07:40;;;;;;;5.73;4.33;;;13.70;99.90;;;;;;10407777;28;20231;-84
2023/12/18 10:12:42;;;;;;;8.57;3.73;;;13.80;99.90;;;;;;10367012;28;20232;-83
2023/12/18 10:17:45;;;;;;;4.53;3.57;;;14.10;99.90;;;;;;10371234;28;20216;-84
2023/12/18 10:22:48;;;;;;;9.03;5.70;;;14.30;99.90;;;;;;10369767;28;20255;-84
2023/12/18 10:27:54;;;;;;;5.97;4.83;;;14.60;99.90;;;;;;10377740;28;20618;-84
2023/12/18 10:32:59;;;;;;;7.50;3.90;;;14.80;99.90;;;;;;10410204;28;20242;-84
2023/12/18 10:38:02;;;;;;;10.70;4.70;;;14.80;99.90;;;;;;10411121;28;20284;-84
2023/12/18 10:43:07;;;;;;;4.20;2.77;;;14.90;99.90;;;;;;10377130;28;20303;-84
2023/12/18 10:48:12;;;;;;;6.33;3.00;;;15.00;99.90;;;;;;10378830;28;20252;-84
2023/12/18 10:53:17;;;;;;;3.43;1.93;;;15.10;99.90;;;;;;10409577;28;20659;-85
2023/12/18 10:58:20;;;;;;;7.70;4.90;;;15.10;99.90;;;;;;10410036;28;20639;-85
2023/12/18 11:03:27;;;;;;;8.03;3.63;;;14.80;99.90;;;;;;10408027;28;20309;-85
2023/12/18 11:08:30;;;;;;;7.67;4.57;;;14.50;99.90;;;;;;10408964;28;20277;-85
2023/12/18 11:14:07;;;;;;;4.70;3.97;;;14.70;99.90;;;;;;10409782;28;20248;-85
2023/12/18 11:19:31;;;;;;;8.67;4.63;;;14.80;99.90;;;;;;10348278;28;20287;-84
2023/12/18 11:24:38;;;;;;;3.27;2.23;;;14.70;99.90;;;;;;10364838;28;20332;-84
2023/12/18 11:29:42;;;;;;;3.93;3.30;;;15.10;99.90;;;;;;10348867;28;20242;-84
2023/12/18 11:34:45;;;;;;;5.47;3.67;;;15.00;99.90;;;;;;10363121;28;20247;-83
2023/12/18 11:39:49;;;;;;;5.77;4.77;;;15.00;99.90;;;;;;10347002;28;20333;-83
2023/12/18 11:44:53;;;;;;;2.27;1.80;;;15.00;99.90;;;;;;10350481;28;20262;-83
2023/12/18 11:49:55;;;;;;;8.53;5.50;;;15.30;99.90;;;;;;10374188;28;20251;-82
2023/12/18 11:54:58;;;;;;;9.63;5.70;;;15.10;99.90;;;;;;10399096;28;20277;-81
2023/12/18 12:00:02;;;;;;;11.53;7.77;;;15.10;99.90;;;;;;10384276;28;20612;-81
2023/12/18 12:05:06;;;;;;;8.60;5.40;;;14.40;99.90;;;;;;10367422;28;20299;-81
2023/12/18 12:10:08;;;;;;;13.97;7.87;;;13.80;99.90;;;;;;10367781;28;20278;-82
2023/12/18 12:15:13;;;;;;;10.50;5.73;;;13.70;99.90;;;;;;10366218;28;20747;-81
2023/12/18 12:20:20;;;;;;;29.73;8.17;;;13.80;99.90;;;;;;10401921;28;20692;-80
2023/12/18 12:25:22;;;;;;;28.30;9.47;;;14.00;99.90;;;;;;10406728;28;20259;-80
2023/12/18 12:30:25;;;;;;;18.23;6.13;;;14.00;99.90;;;;;;10385592;28;20231;-80
2023/12/18 12:35:27;;;;;;;22.77;5.57;;;14.10;99.90;;;;;;10366294;28;20239;-80
2023/12/18 12:40:58;;;;;;;28.47;8.20;;;14.30;99.90;;;;;;10393190;28;20680;-80
2023/12/18 12:46:00;;;;;;;16.70;7.97;;;14.20;99.90;;;;;;10365226;28;20665;-81
2023/12/18 12:51:04;;;;;;;14.33;6.27;;;13.90;99.90;;;;;;10406159;28;20283;-81
2023/12/18 12:56:07;;;;;;;10.87;5.63;;;13.80;99.90;;;;;;10404194;28;20243;-80
2023/12/18 13:01:10;;;;;;;27.93;7.47;;;14.00;99.90;;;;;;10406627;28;20240;-80
2023/12/18 13:06:14;;;;;;;21.20;7.07;;;14.00;99.90;;;;;;10382301;28;20257;-80
2023/12/18 13:11:18;;;;;;;16.00;9.20;;;14.60;99.90;;;;;;10370370;28;20678;-80
2023/12/18 13:16:21;;;;;;;10.77;3.43;;;14.20;99.90;;;;;;10389466;28;20688;-80
2023/12/18 13:21:23;;;;;;;15.27;6.40;;;14.40;99.90;;;;;;10399521;28;20766;-80
2023/12/18 13:26:26;;;;;;;15.33;8.67;;;14.40;99.90;;;;;;10411953;28;20727;-80
2023/12/18 13:31:32;;;;;;;10.57;5.53;;;14.60;99.90;;;;;;10413217;28;20228;-81
2023/12/18 13:36:35;;;;;;;11.20;7.20;;;14.40;99.90;;;;;;10414065;28;20605;-81
2023/12/18 13:41:38;;;;;;;13.53;5.83;;;14.30;99.90;;;;;;10402718;28;20268;-80
2023/12/18 13:46:41;;;;;;;9.60;6.27;;;14.30;99.90;;;;;;10371213;28;20334;-80
2023/12/18 13:51:44;;;;;;;20.33;9.20;;;14.50;99.90;;;;;;10380303;28;20275;-80
2023/12/18 13:56:47;;;;;;;8.33;4.73;;;13.90;99.90;;;;;;10413260;28;20228;-80
2023/12/18 14:01:49;;;;;;;8.00;4.23;;;14.00;99.90;;;;;;10412948;28;20240;-80
2023/12/18 14:06:52;;;;;;;10.00;6.57;;;14.30;99.90;;;;;;10413162;28;20251;-80
2023/12/18 14:11:54;;;;;;;11.17;5.27;;;14.40;99.90;;;;;;10413010;28;20227;-81
2023/12/18 14:16:57;;;;;;;9.83;5.20;;;14.10;99.90;;;;;;10411909;28;20338;-81
2023/12/18 14:21:59;;;;;;;11.80;5.77;;;14.00;99.90;;;;;;10395309;28;20286;-81
2023/12/18 14:27:02;;;;;;;8.33;6.37;;;14.00;99.90;;;;;;10411592;28;20261;-80
2023/12/18 14:32:05;;;;;;;11.63;8.50;;;13.80;99.90;;;;;;10411167;28;20287;-81
2023/12/18 14:37:08;;;;;;;9.17;7.30;;;13.30;99.90;;;;;;10409617;28;20674;-80
2023/12/18 14:42:13;;;;;;;11.40;6.27;;;13.30;99.90;;;;;;10395233;28;20610;-81
2023/12/18 14:47:16;;;;;;;10.50;7.27;;;13.20;99.90;;;;;;10377785;28;20735;-80
2023/12/18 14:52:19;;;;;;;10.70;8.40;;;12.80;99.90;;;;;;10408765;28;20219;-80
2023/12/18 14:57:22;;;;;;;8.63;6.07;;;13.20;99.90;;;;;;10410287;28;20616;-80
2023/12/18 15:02:27;;;;;;;10.97;6.87;;;13.20;99.90;;;;;;10409996;28;20761;-81
2023/12/18 15:07:30;;;;;;;11.33;8.53;;;13.20;99.90;;;;;;10410205;28;20250;-81
2023/12/18 15:12:32;;;;;;;8.60;5.73;;;13.30;99.90;;;;;;10409997;28;20243;-81
2023/12/18 15:17:35;;;;;;;6.90;4.70;;;13.60;99.90;;;;;;10408495;28;20247;-80
2023/12/18 15:22:38;;;;;;;11.67;8.30;;;13.10;99.90;;;;;;10408125;28;20765;-81
2023/12/18 15:27:41;;;;;;;9.03;6.00;;;12.90;99.90;;;;;;10408992;28;20255;-81
2023/12/18 15:32:44;;;;;;;12.43;9.33;;;13.10;99.90;;;;;;10408333;28;20231;-80
2023/12/18 15:37:47;;;;;;;5.40;3.77;;;13.40;99.90;;;;;;10408043;28;20238;-80
2023/12/18 15:42:50;;;;;;;13.00;9.03;;;13.70;99.90;;;;;;10394834;28;20642;-81
2023/12/18 15:47:53;;;;;;;8.83;5.77;;;13.20;99.90;;;;;;10408111;28;20309;-81
2023/12/18 15:52:55;;;;;;;8.13;6.43;;;13.20;99.90;;;;;;10407636;28;20742;-81
2023/12/18 15:57:57;;;;;;;7.43;5.33;;;13.30;99.90;;;;;;10407393;28;20619;-81
2023/12/18 16:03:00;;;;;;;12.77;8.93;;;13.30;99.90;;;;;;10369418;28;20266;-81
2023/12/18 16:08:03;;;;;;;9.07;6.67;;;13.10;99.90;;;;;;10383841;28;20320;-81
2023/12/18 16:13:06;;;;;;;11.33;7.73;;;12.80;99.90;;;;;;10400135;28;20674;-81
2023/12/18 16:18:08;;;;;;;10.33;7.20;;;12.60;99.90;;;;;;10408336;28;20285;-81
2023/12/18 16:23:13;;;;;;;12.57;6.97;;;13.30;99.90;;;;;;10407318;28;20292;-81
2023/12/18 16:28:16;;;;;;;13.63;8.73;;;13.40;99.90;;;;;;10404452;28;20875;-81
2023/12/18 16:33:18;;;;;;;7.00;4.97;;;13.40;99.90;;;;;;10403903;28;20228;-81
2023/12/18 16:38:21;;;;;;;8.90;6.47;;;14.00;99.90;;;;;;10357941;28;20622;-81
2023/12/18 16:43:24;;;;;;;10.27;6.73;;;14.60;99.90;;;;;;10356845;28;20233;-81
2023/12/18 16:48:27;;;;;;;9.83;6.80;;;14.10;99.90;;;;;;10349216;28;20263;-81
2023/12/18 16:53:30;;;;;;;15.27;9.03;;;14.40;99.90;;;;;;10326902;28;20265;-81
2023/12/18 16:58:32;;;;;;;10.57;7.00;;;14.50;99.90;;;;;;10327482;28;20236;-80
2023/12/18 17:03:35;;;;;;;6.83;4.77;;;14.00;99.90;;;;;;10366229;28;20251;-81
2023/12/18 17:08:37;;;;;;;12.20;8.80;;;14.00;99.90;;;;;;10380462;28;20324;-81
2023/12/18 17:13:40;;;;;;;10.00;7.53;;;14.40;99.90;;;;;;10030161;28;9999836;-81
2023/12/18 17:18:42;;;;;;;8.07;5.90;;;14.20;99.90;;;;;;10346243;28;20306;-81
2023/12/18 17:23:45;;;;;;;10.73;7.57;;;14.10;99.90;;;;;;10370919;28;20277;-81
2023/12/18 17:28:49;;;;;;;9.50;6.60;;;14.00;99.90;;;;;;10399754;28;20263;-81
2023/12/18 17:33:51;;;;;;;14.10;9.30;;;14.10;99.90;;;;;;10410921;28;20235;-81
2023/12/18 17:38:54;;;;;;;9.13;5.13;;;14.00;99.90;;;;;;10409944;28;20235;-81
2023/12/18 17:43:58;;;;;;;7.33;5.77;;;14.30;99.90;;;;;;10407931;28;20365;-81
2023/12/18 17:49:01;;;;;;;7.70;4.87;;;14.30;99.90;;;;;;10375291;28;20265;-82
2023/12/18 17:54:05;;;;;;;11.57;7.10;;;14.10;99.90;;;;;;10368251;28;20286;-81
2023/12/18 17:59:08;;;;;;;7.17;4.23;;;14.00;99.90;;;;;;10359943;28;20893;-81
2023/12/18 18:04:11;;;;;;;5.03;3.30;;;14.30;99.90;;;;;;10376983;28;20273;-81
2023/12/18 18:09:13;;;;;;;5.60;3.40;;;14.00;99.90;;;;;;10409946;28;20232;-81
2023/12/18 18:14:16;;;;;;;8.97;6.57;;;14.00;99.90;;;;;;10394633;28;20275;-81
2023/12/18 18:19:19;;;;;;;8.93;4.20;;;14.10;99.90;;;;;;10341156;28;20235;-81
2023/12/18 18:24:22;;;;;;;7.17;4.50;;;13.90;99.90;;;;;;10381163;28;20264;-81
2023/12/18 18:29:25;;;;;;;7.97;6.57;;;14.30;99.90;;;;;;10365731;28;20702;-80
2023/12/18 18:34:27;;;;;;;13.00;8.13;;;14.00;99.90;;;;;;10355465;28;20241;-81
2023/12/18 18:39:30;;;;;;;8.93;6.60;;;14.30;99.90;;;;;;10363812;28;20224;-81
2023/12/18 18:44:33;;;;;;;12.40;8.20;;;13.80;99.90;;;;;;10376120;28;20255;-81
2023/12/18 18:49:35;;;;;;;20.80;12.47;;;13.70;99.90;;;;;;10360932;28;20322;-81
2023/12/18 18:54:41;;;;;;;7.50;5.37;;;13.30;99.90;;;;;;10342485;28;20732;-81
2023/12/18 18:59:43;;;;;;;12.17;6.77;;;13.10;99.90;;;;;;10383792;28;20267;-81
2023/12/18 19:04:46;;;;;;;11.90;7.80;;;13.10;99.90;;;;;;10359033;28;20312;-81
2023/12/18 19:09:49;;;;;;;14.93;7.70;;;13.00;99.90;;;;;;10331051;28;20232;-81
2023/12/18 19:14:51;;;;;;;16.60;10.83;;;13.10;99.90;;;;;;10360335;28;20220;-81
2023/12/18 19:19:54;;;;;;;5.00;4.10;;;12.70;99.90;;;;;;10384459;28;20235;-81
2023/12/18 19:24:56;;;;;;;14.67;9.83;;;12.80;99.90;;;;;;10365657;28;20322;-80
2023/12/18 19:29:59;;;;;;;9.97;7.93;;;12.80;99.90;;;;;;10359835;28;20241;-81
2023/12/18 19:35:02;;;;;;;6.43;5.40;;;12.80;99.90;;;;;;10357778;28;20793;-81
2023/12/18 19:40:06;;;;;;;14.00;7.83;;;12.70;99.90;;;;;;10362377;28;20228;-81
2023/12/18 19:45:09;;;;;;;13.60;8.97;;;13.00;99.90;;;;;;10368260;28;20251;-81
2023/12/18 19:50:12;;;;;;;6.83;5.30;;;12.00;99.90;;;;;;10362763;28;20325;-81
2023/12/18 19:55:15;;;;;;;7.13;5.67;;;12.10;99.90;;;;;;10335894;28;20261;-81
2023/12/18 20:00:18;;;;;;;9.03;8.00;;;12.70;99.90;;;;;;10372476;28;20239;-81
2023/12/18 20:05:21;;;;;;;19.30;12.47;;;12.80;99.90;;;;;;10342202;28;20692;-81
2023/12/18 20:10:23;;;;;;;11.33;7.30;;;12.60;99.90;;;;;;10355976;28;20645;-81
2023/12/18 20:15:26;;;;;;;10.07;8.00;;;12.30;99.90;;;;;;10340424;28;20256;-81
2023/12/18 20:20:29;;;;;;;10.43;6.67;;;12.50;99.90;;;;;;10334192;28;20750;-81
2023/12/18 20:25:32;;;;;;;11.10;7.40;;;12.80;99.90;;;;;;10378287;28;20309;-81
2023/12/18 20:30:34;;;;;;;11.07;8.27;;;12.80;99.90;;;;;;10353846;28;20769;-81
2023/12/18 20:35:38;;;;;;;7.70;5.70;;;13.00;99.90;;;;;;10365801;28;20260;-81
2023/12/18 20:40:40;;;;;;;12.17;8.03;;;13.90;99.90;;;;;;10355488;28;20234;-81
2023/12/18 20:45:44;;;;;;;9.97;6.50;;;14.00;99.90;;;;;;10344328;28;20257;-81
2023/12/18 20:50:48;;;;;;;8.87;6.67;;;13.60;99.90;;;;;;10347050;28;20687;-81
2023/12/18 20:55:51;;;;;;;11.30;6.83;;;13.80;99.90;;;;;;10377380;28;20240;-81
2023/12/18 21:00:53;;;;;;;8.03;6.07;;;13.90;99.90;;;;;;10353305;28;20236;-81
2023/12/18 21:05:56;;;;;;;8.33;5.60;;;14.10;99.90;;;;;;10326867;28;20264;-80
2023/12/18 21:10:58;;;;;;;15.23;10.43;;;14.00;99.90;;;;;;10333678;28;20294;-81
2023/12/18 21:16:01;;;;;;;12.70;7.80;;;13.90;99.90;;;;;;10343248;28;20291;-81
2023/12/18 21:21:05;;;;;;;15.13;9.50;;;14.20;99.90;;;;;;10333280;28;20241;-82
2023/12/18 21:26:09;;;;;;;14.13;8.70;;;13.70;99.90;;;;;;10348818;28;20306;-81
2023/12/18 21:31:12;;;;;;;13.43;8.90;;;13.40;99.90;;;;;;10364810;28;20229;-80
2023/12/18 21:36:18;;;;;;;16.20;9.83;;;13.20;99.90;;;;;;10366768;28;20279;-81
2023/12/18 21:41:22;;;;;;;13.57;8.90;;;13.00;99.90;;;;;;10365398;28;20288;-80
2023/12/18 21:46:24;;;;;;;19.83;11.03;;;12.60;99.90;;;;;;10341261;28;20265;-81
2023/12/18 21:51:28;;;;;;;15.20;10.63;;;11.70;99.90;;;;;;10359939;28;20768;-81
2023/12/18 21:56:40;;;;;;;18.83;11.53;;;11.40;99.90;;;;;;10333110;28;20245;-81
2023/12/18 22:01:43;;;;;;;16.43;9.97;;;11.00;99.90;;;;;;10349697;28;20302;-81
2023/12/18 22:06:45;;;;;;;14.90;9.47;;;10.40;99.90;;;;;;10358678;28;20262;-81
2023/12/18 22:11:48;;;;;;;20.60;13.13;;;9.60;99.90;;;;;;10336104;28;20232;-81
2023/12/18 22:16:51;;;;;;;20.10;12.47;;;9.60;99.90;;;;;;10361948;28;20235;-81
2023/12/18 22:21:53;;;;;;;16.67;10.80;;;9.50;99.90;;;;;;10369285;28;20263;-81
2023/12/18 22:26:56;;;;;;;16.37;10.17;;;9.70;99.90;;;;;;10351917;28;20316;-81
2023/12/18 22:31:59;;;;;;;11.97;7.13;;;10.20;99.90;;;;;;10370759;28;20293;-81
2023/12/18 22:37:03;;;;;;;18.10;10.93;;;10.20;99.90;;;;;;10406869;28;20231;-81
2023/12/18 22:42:05;;;;;;;19.33;11.73;;;11.00;99.90;;;;;;10363510;28;20746;-81
2023/12/18 22:47:10;;;;;;;18.27;10.53;;;10.30;99.90;;;;;;10332633;28;20311;-81
2023/12/18 22:52:13;;;;;;;11.47;7.87;;;10.00;99.90;;;;;;10329162;28;20304;-82
2023/12/18 22:57:15;;;;;;;17.67;10.10;;;9.70;99.90;;;;;;10362798;28;20286;-81
2023/12/18 23:02:18;;;;;;;24.60;13.20;;;10.20;99.90;;;;;;10368504;28;20240;-81
2023/12/18 23:07:20;;;;;;;15.70;10.37;;;9.80;99.90;;;;;;10366007;28;20279;-81
2023/12/18 23:12:23;;;;;;;16.60;11.90;;;9.90;99.90;;;;;;10358392;28;20225;-81
2023/12/18 23:17:25;;;;;;;118.23;58.53;;;10.00;99.90;;;;;;10339244;28;20282;-81
2023/12/18 23:22:28;;;;;;;46.40;26.80;;;10.40;99.90;;;;;;10367727;28;20285;-81
2023/12/18 23:27:30;;;;;;;33.80;18.40;;;10.50;99.90;;;;;;10367413;28;20259;-82
2023/12/18 23:32:33;;;;;;;49.93;27.07;;;10.50;99.90;;;;;;10409771;28;20237;-81
2023/12/18 23:37:37;;;;;;;34.93;19.83;;;10.30;99.90;;;;;;10409458;28;20289;-81
2023/12/18 23:42:39;;;;;;;21.77;14.33;;;10.20;99.90;;;;;;10409394;28;20293;-81
2023/12/18 23:47:47;;;;;;;45.73;23.50;;;10.30;99.90;;;;;;10406120;28;20350;-81
2023/12/18 23:52:50;;;;;;;45.80;21.20;;;10.40;99.90;;;;;;10367532;28;20274;-81
2023/12/18 23:57:53;;;;;;;51.30;24.10;;;10.70;99.90;;;;;;10367031;28;20224;-81
